Flight Track Log - Related Links

Times and Time Zones

All times are in EDT time to prevent confusion due to time zone crossing. See the CA611 flight status page for this flight to view local times or setup timezone preferences in your user account.

Time Position Orientation Groundspeed Altitude Reporting Facility
EDT Latitude Longitude Course Direction KTS MPH feet Rate Location/Type
Thu 07:04:52 PM 52.2000 -126.8500 134° Southeast 210 242 13,200  Level Vancouver Center
Thu 07:05:52 PM 52.1500 -126.7833 141° Southeast 220 253 14,700 1,500 Climbing Vancouver Center
Thu 07:06:52 PM 52.1000 -126.7333 148° Southeast 230 265 16,200 1,400 Climbing Vancouver Center
Thu 07:07:52 PM 52.0667 -126.6500 123° Southeast 230 265 17,500 1,200 Climbing Vancouver Center
Thu 07:08:52 PM 52.0167 -126.6000 148° Southeast 230 265 18,600 1,100 Climbing Vancouver Center
Thu 07:09:00 PM 52.0354 -126.1957 145° Southeast  Level FlightAware Approximate
Thu 07:09:52 PM 51.9667 -126.5333 141° Southeast 230 265 19,700  Level Vancouver Center
Thu 07:10:52 PM 51.9167 -126.4500 134° Southeast 230 265 20,900 1,150 Climbing Vancouver Center
Thu 07:11:52 PM 51.8667 -126.4000 148° Southeast 230 265 22,000 1,050 Climbing Vancouver Center
Thu 07:12:52 PM 51.8167 -126.3167 134° Southeast 240 276 23,000 1,050 Climbing Vancouver Center
Thu 07:13:52 PM 51.7667 -126.2500 140° Southeast 240 276 24,100 1,000 Climbing Vancouver Center
Thu 07:14:52 PM 51.7167 -126.1667 134° Southeast 250 288 25,000 900 Climbing Vancouver Center
Thu 07:15:52 PM 51.6500 -126.1167 155° Southeast 250 288 25,900 900 Climbing Vancouver Center
Thu 07:16:52 PM 51.6000 -126.0333 134° Southeast 250 288 26,800 550 Climbing Vancouver Center
Thu 07:17:52 PM 51.5500 -125.9667 140° Southeast 250 288 27,000 100 Climbing Vancouver Center
Thu 07:18:52 PM 51.4833 -125.8833 142° Southeast 280 322 27,000  Level Vancouver Center
Thu 07:19:52 PM 51.4333 -125.7833 129° Southeast 290 334 27,000  Level Vancouver Center
Thu 07:20:52 PM 51.3667 -125.7000 142° Southeast 310 357 27,000  Level Vancouver Center
Thu 07:21:52 PM 51.3000 -125.6167 142° Southeast 310 357 27,000  Level Vancouver Center
Thu 07:22:52 PM 51.2333 -125.5333 142° Southeast 310 357 27,000  Level Vancouver Center
Thu 07:23:52 PM 51.1667 -125.4500 142° Southeast 310 357 27,000  Level Vancouver Center
Thu 07:24:52 PM 51.1000 -125.3667 142° Southeast 310 357 27,000  Level Vancouver Center
Thu 07:25:52 PM 51.0333 -125.2667 137° Southeast 310 357 27,000  Level Vancouver Center
Thu 07:26:52 PM 50.9500 -125.1833 148° Southeast 310 357 27,000  Level Vancouver Center
Thu 07:27:52 PM 50.8833 -125.1000 142° Southeast 310 357 27,000  Level Vancouver Center
Thu 07:28:52 PM 50.8167 -125.0167 142° Southeast 310 357 27,000  Level Vancouver Center
Thu 07:29:52 PM 50.7500 -124.9333 142° Southeast 310 357 27,000  Level Vancouver Center
Thu 07:30:52 PM 50.6833 -124.8333 136° Southeast 310 357 27,000  Level Vancouver Center
Thu 07:31:52 PM 50.6167 -124.7500 142° Southeast 310 357 27,000  Level Vancouver Center
Thu 07:32:52 PM 50.5500 -124.6667 142° Southeast 310 357 27,000  Level Vancouver Center
Thu 07:33:52 PM 50.4833 -124.5833 141° Southeast 310 357 27,000  Level Vancouver Center
Thu 07:34:52 PM 50.4167 -124.5000 141° Southeast 310 357 27,000  Level Vancouver Center
Thu 07:35:52 PM 50.3500 -124.4000 136° Southeast 310 357 27,000  Level Vancouver Center
Thu 07:36:52 PM 50.2667 -124.3167 147° Southeast 310 357 27,000  Level Vancouver Center
Thu 07:37:52 PM 50.2000 -124.2500 147° Southeast 310 357 27,000 -850 Level Vancouver Center
Thu 07:38:52 PM 50.1333 -124.1667 141° Southeast 320 368 25,300 -2,150 Descending Vancouver Center
Thu 07:39:52 PM 50.0500 -124.0667 142° Southeast 350 403 22,700 -2,450 Descending Vancouver Center
Thu 07:40:52 PM 49.9833 -123.9500 132° Southeast 340 391 20,400 -2,400 Descending Vancouver Center
Thu 07:41:52 PM 49.9167 -123.8833 147° Southeast 340 391 17,900 -2,350 Descending Vancouver Center
Thu 07:42:52 PM 49.8333 -123.8000 147° Southeast 330 380 15,700 -2,100 Descending Vancouver Center
Thu 07:43:52 PM 49.7667 -123.7167 141° Southeast 310 357 13,700 -2,150 Descending Vancouver Center
Thu 07:44:52 PM 49.7000 -123.6500 147° Southeast 300 345 11,400 -1,850 Descending Vancouver Center
Thu 07:45:52 PM 49.6333 -123.6000 154° Southeast 300 345 10,000 -700 Descending Vancouver Center
Thu 07:46:52 PM 49.5500 -123.5500 159° South 280 322 10,000  Level Vancouver Center
Thu 07:47:52 PM 49.4833 -123.4833 147° Southeast 280 322 10,000  Level Vancouver Center
Thu 07:48:52 PM 49.4167 -123.4333 154° Southeast 280 322 10,000 -350 Level Vancouver Center
Thu 07:49:52 PM 49.3500 -123.3667 147° Southeast 280 322 9,300 -1,100 Descending Vancouver Center
Thu 07:50:52 PM 49.2833 -123.3167 154° Southeast 270 311 7,800 -1,500 Descending Vancouver Center
Thu 07:51:52 PM 49.2667 -123.2167 104° East 280 322 6,300 -1,450 Descending Vancouver Center
Thu 07:52:52 PM 49.2500 -123.1167 104° East 270 311 4,900 -1,400 Descending Vancouver Center
Thu 07:53:52 PM 49.2333 -123.0000 102° East 260 299 3,500 -1,350 Descending Vancouver Center
Thu 07:54:52 PM 49.1833 -122.9333 139° Southeast 230 265 2,200 -850 Descending Vancouver Center
Thu 07:55:52 PM 49.1500 -122.9833 224° Southwest 190 219 1,800 -450 Descending Vancouver Center
Thu 07:56:52 PM 49.1500 -123.0667 270° West 160 184 1,300 -650 Descending Vancouver Center
Thu 07:57:52 PM 49.1667 -123.1333 291° West 140 161 500 -800 Descending Vancouver Center

Login

Don't have an account? Register now (free) for customized features, flight alerts, and more!